createdAt,value
2019-02-24T00:01:33.696Z,-0.50
2019-02-24T00:06:40.719Z,-0.78
2019-02-24T00:11:47.775Z,-1.02
2019-02-24T00:16:54.821Z,-1.05
2019-02-24T00:22:02.969Z,-1.01
2019-02-24T00:27:09.954Z,-0.82
2019-02-24T00:32:16.936Z,-0.62
2019-02-24T00:37:23.925Z,-0.69
2019-02-24T00:42:30.978Z,-0.66
2019-02-24T00:47:37.975Z,-0.63
2019-02-24T00:52:44.990Z,-0.60
2019-02-24T00:57:52.179Z,-0.54
2019-02-24T01:02:59.187Z,-0.42
2019-02-24T01:08:06.363Z,-0.42
2019-02-24T01:13:13.433Z,-0.31
2019-02-24T01:18:20.506Z,-0.25
2019-02-24T01:23:27.582Z,-0.34
2019-02-24T01:28:34.683Z,-0.33
2019-02-24T01:33:41.760Z,-0.32
2019-02-24T01:38:48.751Z,-0.26
2019-02-24T01:43:56.183Z,-0.52
2019-02-24T01:49:03.252Z,-0.58
2019-02-24T01:54:10.292Z,-0.55
2019-02-24T01:59:17.285Z,-0.56
2019-02-24T02:04:24.258Z,-0.56
2019-02-24T02:09:31.272Z,-0.71
2019-02-24T02:14:38.239Z,-0.78
2019-02-24T02:19:45.248Z,-0.91
2019-02-24T02:24:52.242Z,-0.88
2019-02-24T02:29:59.331Z,-0.99
2019-02-24T02:35:07.393Z,-1.06
2019-02-24T02:40:14.463Z,-0.96
2019-02-24T02:45:21.431Z,-1.00
2019-02-24T02:50:28.505Z,-1.13
2019-02-24T02:55:35.534Z,-0.91
2019-02-24T03:00:43.721Z,-1.03
2019-02-24T03:06:16.166Z,-1.26
2019-02-24T03:11:23.248Z,-1.35
2019-02-24T03:16:30.398Z,-1.39
2019-02-24T03:21:37.398Z,-1.34
2019-02-24T03:26:44.484Z,-1.19
2019-02-24T03:31:51.459Z,-1.30
2019-02-24T03:36:58.531Z,-1.33
2019-02-24T03:42:05.584Z,-1.27
2019-02-24T03:47:12.558Z,-1.20
2019-02-24T03:52:19.709Z,-1.23
2019-02-24T03:57:27.465Z,-1.21
2019-02-24T04:02:34.459Z,-1.31
2019-02-24T04:07:41.529Z,-1.29
2019-02-24T04:12:48.656Z,-1.25
2019-02-24T04:17:55.902Z,-1.42
2019-02-24T04:23:02.931Z,-1.42
2019-02-24T04:28:11.227Z,-1.35
2019-02-24T04:33:18.243Z,-1.42
2019-02-24T04:38:25.237Z,-1.25
2019-02-24T04:43:32.272Z,-1.32
2019-02-24T04:48:39.252Z,-1.33
2019-02-24T04:53:46.660Z,-1.39
2019-02-24T04:58:53.729Z,-1.30
2019-02-24T05:04:00.794Z,-1.43
2019-02-24T05:09:07.792Z,-1.50
2019-02-24T05:14:14.898Z,-1.54
2019-02-24T05:19:21.867Z,-1.56
2019-02-24T05:24:28.955Z,-1.68
2019-02-24T05:29:44.694Z,-1.69
2019-02-24T05:34:44.644Z,-1.62
2019-02-24T05:39:51.628Z,-1.70
2019-02-24T05:44:58.653Z,-1.62
2019-02-24T05:50:08.388Z,-1.73
2019-02-24T05:55:15.649Z,-1.90
2019-02-24T06:00:25.242Z,-1.75
2019-02-24T06:05:32.285Z,-1.84
2019-02-24T06:10:39.362Z,-1.78
2019-02-24T06:15:46.408Z,-1.80
2019-02-24T06:20:54.007Z,-1.70
2019-02-24T06:26:01.060Z,-1.80
2019-02-24T06:31:08.836Z,-1.54
2019-02-24T06:36:15.841Z,-1.59
2019-02-24T06:41:23.406Z,-1.75
2019-02-24T06:46:30.607Z,-1.62
2019-02-24T06:51:37.680Z,-1.42
2019-02-24T06:56:44.853Z,-1.48
2019-02-24T07:01:51.978Z,-1.38
2019-02-24T07:06:59.353Z,-1.27
2019-02-24T07:12:06.561Z,-1.37
2019-02-24T07:17:13.567Z,-0.92
2019-02-24T07:22:20.563Z,-0.81
2019-02-24T07:27:27.546Z,-0.88
2019-02-24T07:32:34.786Z,-0.65
2019-02-24T07:37:41.772Z,-0.45
2019-02-24T07:42:48.772Z,-0.68
2019-02-24T07:47:55.871Z,-0.74
2019-02-24T07:53:03.033Z,-0.63
2019-02-24T07:58:11.107Z,-0.62
2019-02-24T08:03:18.126Z,-0.54
2019-02-24T08:08:25.087Z,-0.50
2019-02-24T08:13:32.332Z,-0.45
2019-02-24T08:18:39.412Z,-0.54
2019-02-24T08:23:46.404Z,-0.43
2019-02-24T08:28:53.391Z,-0.26
2019-02-24T08:34:00.453Z,0.15
2019-02-24T08:39:07.628Z,0.55
2019-02-24T08:44:14.637Z,0.74
2019-02-24T08:49:21.706Z,1.21
2019-02-24T08:54:28.757Z,1.39
2019-02-24T08:59:35.778Z,1.97
2019-02-24T09:04:42.830Z,2.15
2019-02-24T09:09:50.223Z,2.06
2019-02-24T09:14:58.198Z,2.29
2019-02-24T09:20:05.656Z,1.84
2019-02-24T09:25:13.657Z,2.35
2019-02-24T09:30:20.841Z,2.35
2019-02-24T09:35:27.923Z,3.44
2019-02-24T09:40:34.954Z,3.33
2019-02-24T09:45:41.960Z,3.94
2019-02-24T09:50:48.953Z,3.88
2019-02-24T09:55:56.016Z,3.86
2019-02-24T10:01:10.283Z,3.68
2019-02-24T10:06:11.833Z,4.14
2019-02-24T10:11:19.116Z,3.91
2019-02-24T10:16:27.196Z,4.10
2019-02-24T10:21:34.216Z,4.12
2019-02-24T10:26:41.279Z,4.05
2019-02-24T10:31:48.515Z,4.14
2019-02-24T10:36:55.863Z,3.99
2019-02-24T10:42:03.008Z,3.85
2019-02-24T10:47:10.123Z,3.92
2019-02-24T10:52:17.202Z,4.22
2019-02-24T10:57:24.419Z,4.67
2019-02-24T11:02:31.776Z,4.92
2019-02-24T11:07:38.908Z,5.81
2019-02-24T11:12:45.880Z,6.11
2019-02-24T11:17:52.928Z,6.26
2019-02-24T11:22:59.931Z,6.49
2019-02-24T11:28:06.967Z,6.80
2019-02-24T11:33:13.974Z,7.35
2019-02-24T11:38:22.035Z,7.74
2019-02-24T11:43:30.242Z,8.13
2019-02-24T11:48:37.238Z,8.79
2019-02-24T11:53:44.285Z,9.35
2019-02-24T11:58:51.330Z,9.34
2019-02-24T12:03:58.821Z,9.89
2019-02-24T12:09:06.127Z,10.07
2019-02-24T12:14:13.203Z,10.15
2019-02-24T12:19:20.283Z,10.49
2019-02-24T12:24:27.262Z,10.42
2019-02-24T12:29:34.277Z,10.65
2019-02-24T12:34:41.279Z,11.45
2019-02-24T12:39:48.260Z,11.67
2019-02-24T12:44:55.323Z,12.19
2019-02-24T12:50:03.875Z,12.43
2019-02-24T12:55:11.000Z,12.54
2019-02-24T13:00:19.208Z,13.25
2019-02-24T13:05:26.438Z,12.72
2019-02-24T13:10:33.655Z,13.38
2019-02-24T13:15:40.739Z,12.70
2019-02-24T13:20:50.664Z,12.40
2019-02-24T13:25:57.825Z,13.34
2019-02-24T13:31:04.958Z,13.79
2019-02-24T13:36:12.231Z,14.36
2019-02-24T13:41:19.344Z,14.86
2019-02-24T13:46:26.541Z,15.17
2019-02-24T13:51:33.626Z,15.13
2019-02-24T13:56:40.801Z,15.91
2019-02-24T14:01:47.901Z,16.40
2019-02-24T14:06:54.927Z,17.37
2019-02-24T14:12:02.153Z,17.65
2019-02-24T14:17:09.188Z,18.02
2019-02-24T14:22:16.201Z,19.15
2019-02-24T14:27:23.290Z,19.14
2019-02-24T14:32:33.075Z,19.98
2019-02-24T14:37:39.410Z,20.25
2019-02-24T14:42:46.556Z,20.12
2019-02-24T14:47:53.847Z,20.01
2019-02-24T14:53:01.291Z,20.44
2019-02-24T14:58:08.609Z,20.61
2019-02-24T15:03:15.903Z,20.63
2019-02-24T15:08:23.243Z,20.67
2019-02-24T15:13:30.608Z,20.92
2019-02-24T15:18:37.997Z,21.42
2019-02-24T15:23:45.386Z,21.42
2019-02-24T15:28:52.976Z,21.54
2019-02-24T15:34:00.433Z,21.54
2019-02-24T15:39:08.219Z,20.93
2019-02-24T15:44:15.714Z,21.09
2019-02-24T15:49:23.047Z,20.33
2019-02-24T15:54:30.847Z,20.27
2019-02-24T15:59:38.205Z,19.89
2019-02-24T16:04:45.509Z,18.98
2019-02-24T16:09:52.911Z,18.98
2019-02-24T16:15:00.832Z,15.83
2019-02-24T16:20:12.789Z,15.83
2019-02-24T16:25:19.809Z,14.84
2019-02-24T16:30:27.165Z,14.14
2019-02-24T16:35:35.971Z,13.31
2019-02-24T16:40:43.033Z,12.14
2019-02-24T16:45:51.531Z,11.69
2019-02-24T16:51:07.504Z,10.95
2019-02-24T16:56:14.896Z,10.10
2019-02-24T17:01:22.085Z,9.58
2019-02-24T17:06:29.136Z,9.11
2019-02-24T17:11:36.164Z,8.81
2019-02-24T17:16:43.222Z,8.60
2019-02-24T17:21:50.275Z,8.45
2019-02-24T17:26:57.545Z,8.31
2019-02-24T17:32:04.579Z,8.14
2019-02-24T17:37:19.685Z,7.98
2019-02-24T17:42:20.318Z,7.83
2019-02-24T17:47:27.521Z,7.71
2019-02-24T17:52:34.828Z,7.57
2019-02-24T17:57:42.908Z,7.57
2019-02-24T18:02:49.900Z,7.43
2019-02-24T18:07:57.962Z,7.32
2019-02-24T18:13:05.324Z,7.29
2019-02-24T18:18:12.760Z,7.23
2019-02-24T18:23:19.780Z,7.34
2019-02-24T18:28:27.017Z,7.52
2019-02-24T18:33:35.316Z,7.55
2019-02-24T18:38:43.905Z,7.38
2019-02-24T18:43:50.979Z,7.33
2019-02-24T18:48:58.067Z,7.24
2019-02-24T18:54:05.136Z,7.35
2019-02-24T18:59:12.191Z,7.42
2019-02-24T19:04:19.178Z,7.44
2019-02-24T19:09:26.691Z,7.38
2019-02-24T19:14:33.843Z,7.37
2019-02-24T19:19:40.984Z,7.22
2019-02-24T19:24:48.079Z,7.22
2019-02-24T19:29:55.074Z,7.02
2019-02-24T19:35:02.117Z,6.89
2019-02-24T19:40:11.131Z,6.74
2019-02-24T19:45:18.502Z,6.63
2019-02-24T19:50:25.640Z,6.43
2019-02-24T19:55:32.744Z,6.43
2019-02-24T20:00:39.835Z,6.34
2019-02-24T20:05:47.159Z,6.44
2019-02-24T20:10:54.620Z,6.39
2019-02-24T20:16:01.699Z,6.62
2019-02-24T20:21:08.915Z,6.47
2019-02-24T20:26:16.854Z,6.54
2019-02-24T20:31:25.010Z,6.39
2019-02-24T20:36:32.065Z,6.40
2019-02-24T20:41:39.134Z,6.34
2019-02-24T20:46:46.146Z,6.16
2019-02-24T20:51:53.192Z,6.19
2019-02-24T20:57:00.203Z,5.96
2019-02-24T21:02:07.367Z,6.09
2019-02-24T21:07:14.484Z,5.90
2019-02-24T21:12:21.573Z,5.83
2019-02-24T21:17:28.556Z,5.58
2019-02-24T21:22:35.760Z,5.55
2019-02-24T21:27:42.804Z,5.29
2019-02-24T21:32:49.998Z,5.24
2019-02-24T21:37:57.082Z,5.11
2019-02-24T21:43:04.283Z,5.01
2019-02-24T21:48:11.572Z,5.12
2019-02-24T21:53:18.653Z,5.11
2019-02-24T21:58:25.815Z,5.02
2019-02-24T22:03:32.811Z,5.05
2019-02-24T22:08:39.846Z,5.07
2019-02-24T22:13:47.074Z,4.94
2019-02-24T22:18:54.068Z,4.77
2019-02-24T22:24:01.075Z,4.88
2019-02-24T22:29:08.249Z,4.74
2019-02-24T22:34:16.414Z,4.70
2019-02-24T22:39:23.498Z,4.67
2019-02-24T22:44:30.599Z,4.48
2019-02-24T22:49:37.633Z,4.27
2019-02-24T22:54:44.663Z,4.14
2019-02-24T22:59:51.830Z,4.07
2019-02-24T23:04:58.960Z,4.10
2019-02-24T23:10:07.312Z,3.87
2019-02-24T23:15:14.403Z,3.84
2019-02-24T23:20:21.430Z,3.79
2019-02-24T23:25:30.226Z,3.71
2019-02-24T23:30:37.619Z,3.81
2019-02-24T23:35:45.857Z,3.53
2019-02-24T23:40:52.994Z,3.60
2019-02-24T23:46:00.017Z,3.62
2019-02-24T23:51:07.075Z,3.69
2019-02-24T23:56:14.205Z,3.86
